Time;durP1;ratioP1;P1;durP2;ratioP2;P2;SDS_P1;SDS_P2;PMS_P1;PMS_P2;Temp;Humidity;BMP_temperature;BMP_pressure;BME280_temperature;BME280_humidity;BME280_pressure;Samples;Min_cycle;Max_cycle;Signal;HPM_P1;HPM_P2
2023/12/20 00:02:18;;;;;;;20.80;11.60;;;;;;;14.56;39.17;96614.59;5041051;28;20101;-26
2023/12/20 00:04:44;;;;;;;20.67;11.43;;;;;;;14.42;39.27;96615.13;5037692;28;20021;-26
2023/12/20 00:07:09;;;;;;;20.52;11.77;;;;;;;14.50;39.26;96602.72;5025102;28;20051;-26
2023/12/20 00:09:35;;;;;;;17.83;10.70;;;;;;;14.58;39.21;96600.50;5035689;28;20020;-26
2023/12/20 00:12:00;;;;;;;16.33;10.57;;;;;;;14.54;39.16;96600.63;5036812;28;20021;-26
2023/12/20 00:14:26;;;;;;;17.58;10.40;;;;;;;14.47;39.14;96600.91;5035605;28;20030;-26
2023/12/20 00:16:51;;;;;;;18.10;10.88;;;;;;;14.53;39.11;96601.84;5042967;28;20120;-26
2023/12/20 00:19:17;;;;;;;18.27;10.95;;;;;;;14.36;39.14;96603.22;5042830;28;20018;-26
2023/12/20 00:21:42;;;;;;;17.05;10.15;;;;;;;14.47;38.68;96600.91;5036032;28;20447;-26
2023/12/20 00:24:08;;;;;;;19.30;10.77;;;;;;;14.53;38.75;96598.34;5043959;28;20021;-26
2023/12/20 00:26:34;;;;;;;19.13;10.45;;;;;;;14.47;38.69;96602.84;5036040;28;20021;-26
2023/12/20 00:28:59;;;;;;;16.88;11.07;;;;;;;14.37;38.90;96599.31;5042384;28;20079;-26
2023/12/20 00:31:25;;;;;;;18.00;11.27;;;;;;;14.45;38.61;96597.13;5038272;28;20025;-26
2023/12/20 00:33:50;;;;;;;18.77;11.38;;;;;;;14.54;38.67;96592.44;5039578;28;20060;-26
2023/12/20 00:36:15;;;;;;;17.55;11.15;;;;;;;14.42;38.63;96590.56;5036255;28;20067;-26
2023/12/20 00:38:41;;;;;;;18.40;10.80;;;;;;;14.48;38.45;96580.59;5035149;28;20025;-26
2023/12/20 00:41:06;;;;;;;16.40;10.18;;;;;;;14.43;38.37;96578.47;5042664;28;20021;-26
2023/12/20 00:43:32;;;;;;;17.77;9.85;;;;;;;14.46;38.34;96582.25;5035813;28;20021;-26
2023/12/20 00:45:59;;;;;;;14.85;9.75;;;;;;;14.41;38.27;96574.66;5042102;28;20029;-26
2023/12/20 00:48:26;;;;;;;12.60;8.75;;;;;;;14.32;38.48;96580.81;5042747;28;20056;-26
2023/12/20 00:50:52;;;;;;;13.15;8.77;;;;;;;14.41;38.13;96569.19;5034968;28;20021;-26
2023/12/20 00:53:17;;;;;;;16.63;10.07;;;;;;;14.33;38.60;96577.63;5035468;28;20481;-26
2023/12/20 00:55:44;;;;;;;20.83;12.40;;;;;;;14.37;38.23;96569.28;5035480;28;20024;-26
2023/12/20 00:58:10;;;;;;;24.85;14.75;;;;;;;14.40;38.57;96560.25;5040369;28;20025;-26
2023/12/20 01:00:35;;;;;;;23.25;14.00;;;;;;;14.32;38.57;96559.72;5045006;28;20024;-26
2023/12/20 01:03:01;;;;;;;20.80;13.00;;;;;;;14.49;38.28;96564.97;5042158;28;20021;-26
2023/12/20 01:05:26;;;;;;;18.00;11.57;;;;;;;14.38;38.58;96565.34;5034633;28;20100;-26
2023/12/20 01:07:52;;;;;;;16.63;11.07;;;;;;;14.45;38.43;96548.00;5035562;28;20033;-26
2023/12/20 01:10:17;;;;;;;16.33;10.45;;;;;;;14.47;38.29;96549.03;5034622;28;20466;-26
2023/12/20 01:12:44;;;;;;;16.70;11.00;;;;;;;14.35;38.78;96549.88;5042349;28;20033;-26
2023/12/20 01:15:09;;;;;;;16.35;10.65;;;;;;;14.40;38.52;96546.59;5033629;28;20087;-26
2023/12/20 01:17:35;;;;;;;14.02;9.77;;;;;;;14.35;38.83;96541.69;5035037;28;20425;-26
2023/12/20 01:20:01;;;;;;;15.30;9.82;;;;;;;14.43;38.64;96540.25;5035269;28;20024;-26
2023/12/20 01:22:26;;;;;;;15.38;9.70;;;;;;;14.45;38.74;96537.84;5038646;28;20480;-26
2023/12/20 01:24:52;;;;;;;15.15;9.18;;;;;;;14.23;39.30;96537.09;5044698;28;20024;-26
2023/12/20 01:27:17;;;;;;;15.32;8.70;;;;;;;14.42;38.88;96536.00;5037206;28;20056;-26
2023/12/20 01:29:43;;;;;;;15.02;9.68;;;;;;;14.33;39.15;96533.22;5039086;28;20022;-26
2023/12/20 01:32:08;;;;;;;14.07;8.98;;;;;;;14.28;39.21;96533.78;5034211;28;20029;-26
2023/12/20 01:34:34;;;;;;;14.55;9.07;;;;;;;14.40;38.83;96532.97;5034813;28;20033;-26
2023/12/20 01:37:00;;;;;;;13.30;7.97;;;;;;;14.38;38.32;96533.38;5035206;28;20107;-26
2023/12/20 01:39:25;;;;;;;13.88;7.82;;;;;;;14.36;38.54;96529.56;5034264;28;20040;-26
2023/12/20 01:41:50;;;;;;;12.52;7.40;;;;;;;14.47;38.40;96524.50;5034071;28;20022;-26
2023/12/20 01:44:16;;;;;;;13.20;8.05;;;;;;;14.43;38.36;96518.44;5042243;28;20086;-26
2023/12/20 01:46:41;;;;;;;12.13;7.72;;;;;;;14.21;38.79;96520.44;5033860;28;20122;-26
2023/12/20 01:49:07;;;;;;;11.70;7.20;;;;;;;14.40;38.45;96521.28;5034303;28;20053;-26
2023/12/20 01:51:34;;;;;;;11.43;6.65;;;;;;;14.35;38.46;96514.41;5035004;28;20014;-26
2023/12/20 01:54:00;;;;;;;14.63;7.43;;;;;;;14.34;38.32;96515.63;5038474;28;20466;-26
2023/12/20 01:56:28;;;;;;;14.20;8.30;;;;;;;14.32;38.56;96513.34;5023746;28;20025;-26
2023/12/20 01:58:56;;;;;;;13.27;8.10;;;;;;;14.36;38.61;96505.00;5045011;28;20028;-26
2023/12/20 02:01:21;;;;;;;13.05;8.35;;;;;;;14.33;38.73;96508.66;5037615;28;20356;-26
2023/12/20 02:03:47;;;;;;;15.80;8.55;;;;;;;14.38;38.56;96500.63;5036730;28;20075;-26
2023/12/20 02:06:13;;;;;;;12.38;8.38;;;;;;;14.30;38.82;96493.94;5040223;28;20479;-26
2023/12/20 02:08:38;;;;;;;17.35;9.05;;;;;;;14.28;39.08;96495.59;5041525;28;20100;-26
2023/12/20 02:11:04;;;;;;;13.57;8.18;;;;;;;14.29;38.90;96497.13;5040655;28;20024;-26
2023/12/20 02:13:31;;;;;;;12.80;7.75;;;;;;;14.21;39.36;96483.00;5034232;28;20028;-26
2023/12/20 02:15:56;;;;;;;16.27;8.07;;;;;;;14.43;39.20;96474.78;5034574;28;20025;-26
2023/12/20 02:18:22;;;;;;;13.10;8.40;;;;;;;14.23;39.03;96477.06;5034234;28;20356;-26
2023/12/20 02:20:48;;;;;;;13.75;8.48;;;;;;;14.22;38.98;96470.09;5030510;28;20455;-26
2023/12/20 02:23:13;;;;;;;14.63;8.65;;;;;;;14.20;39.15;96456.19;5043478;28;20032;-26
2023/12/20 02:25:40;;;;;;;13.07;8.75;;;;;;;14.25;39.03;96458.31;5039791;28;20028;-26
2023/12/20 02:28:06;;;;;;;13.70;8.30;;;;;;;14.06;39.37;96452.03;5045210;28;20033;-26
2023/12/20 02:30:32;;;;;;;16.00;8.98;;;;;;;14.07;39.58;96458.25;5037401;28;20064;-26
2023/12/20 02:32:59;;;;;;;13.50;8.95;;;;;;;14.17;39.05;96448.88;5037637;28;20021;-26
2023/12/20 02:35:25;;;;;;;14.30;9.10;;;;;;;14.20;39.18;96446.03;5038016;28;20017;-26
2023/12/20 02:37:50;;;;;;;13.93;8.38;;;;;;;14.23;38.98;96449.81;5044234;28;20074;-26
2023/12/20 02:40:16;;;;;;;13.98;8.57;;;;;;;14.24;38.89;96445.88;5046070;28;20389;-26
2023/12/20 02:42:41;;;;;;;13.20;8.38;;;;;;;14.24;39.21;96443.13;5044629;28;20029;-26
2023/12/20 02:45:07;;;;;;;13.02;7.50;;;;;;;14.26;38.86;96440.72;5037764;28;20168;-26
2023/12/20 02:47:33;;;;;;;12.77;7.28;;;;;;;14.19;39.10;96432.84;5038006;28;20033;-26
2023/12/20 02:49:58;;;;;;;14.02;7.25;;;;;;;14.22;39.50;96431.91;5042280;28;20486;-26
2023/12/20 02:52:24;;;;;;;11.23;7.50;;;;;;;14.15;39.46;96432.97;5039526;28;20018;-26
2023/12/20 02:54:50;;;;;;;12.30;7.78;;;;;;;14.14;39.15;96430.69;5027328;28;20109;-26
2023/12/20 02:57:15;;;;;;;12.38;7.38;;;;;;;14.17;39.19;96421.59;5037695;28;20121;-26
2023/12/20 02:59:41;;;;;;;12.32;7.63;;;;;;;14.15;38.97;96418.56;5045573;28;20450;-26
2023/12/20 03:02:06;;;;;;;10.73;7.20;;;;;;;14.17;38.85;96419.66;5036796;28;20486;-26
2023/12/20 03:04:32;;;;;;;9.95;6.20;;;;;;;14.19;38.75;96409.03;5051813;28;20025;-26
2023/12/20 03:06:57;;;;;;;12.70;7.18;;;;;;;14.05;39.08;96408.84;5044765;28;20028;-26
2023/12/20 03:09:22;;;;;;;10.85;6.38;;;;;;;14.06;39.12;96400.22;5021443;28;20021;-26
2023/12/20 03:11:48;;;;;;;10.93;6.90;;;;;;;14.08;39.13;96397.03;5034731;28;20104;-26
2023/12/20 03:14:13;;;;;;;10.57;6.53;;;;;;;14.05;39.25;96395.22;5037221;28;20053;-26
2023/12/20 03:16:39;;;;;;;10.30;6.68;;;;;;;13.92;39.53;96404.25;5043455;28;20025;-26
2023/12/20 03:19:04;;;;;;;9.50;6.65;;;;;;;14.10;39.44;96389.16;5038785;28;20026;-26
2023/12/20 03:21:30;;;;;;;10.38;6.82;;;;;;;14.04;39.21;96389.00;5042673;28;20013;-26
2023/12/20 03:23:55;;;;;;;13.30;7.32;;;;;;;13.98;39.71;96386.09;5044618;28;20022;-26
2023/12/20 03:26:22;;;;;;;9.23;6.45;;;;;;;13.97;40.06;96379.09;5037023;28;20017;-26
2023/12/20 03:28:48;;;;;;;10.00;6.47;;;;;;;14.03;39.78;96382.78;5036505;28;20441;-26
2023/12/20 03:31:13;;;;;;;16.73;6.85;;;;;;;14.03;39.99;96371.88;5044590;28;20021;-26
2023/12/20 03:33:39;;;;;;;10.55;6.40;;;;;;;14.00;40.12;96372.75;5043297;28;20026;-26
2023/12/20 03:36:05;;;;;;;12.77;6.43;;;;;;;14.07;40.07;96370.97;5036484;28;20022;-26
2023/12/20 03:38:30;;;;;;;8.73;5.85;;;;;;;14.05;39.94;96365.22;5035310;28;20493;-26
2023/12/20 03:40:55;;;;;;;10.52;6.70;;;;;;;14.21;39.81;96359.50;5024990;28;20475;-26
2023/12/20 03:43:21;;;;;;;10.25;7.30;;;;;;;14.12;40.14;96354.00;5038183;28;20021;-26
2023/12/20 03:45:46;;;;;;;10.20;7.05;;;;;;;14.12;40.34;96356.72;5039828;28;20891;-26
2023/12/20 03:48:12;;;;;;;8.48;6.47;;;;;;;13.98;40.90;96350.63;5039774;28;20013;-27
2023/12/20 03:50:37;;;;;;;9.25;5.60;;;;;;;14.09;41.23;96344.78;5025721;28;20562;-26
2023/12/20 03:53:03;;;;;;;8.75;5.15;;;;;;;14.11;41.43;96344.31;5036610;28;20017;-26
2023/12/20 03:55:29;;;;;;;9.30;5.18;;;;;;;14.18;41.54;96342.06;5036333;28;20060;-26
2023/12/20 03:57:54;;;;;;;8.05;4.93;;;;;;;14.14;42.05;96343.41;5036215;28;20052;-26
2023/12/20 04:00:20;;;;;;;7.05;4.53;;;;;;;14.00;42.23;96340.03;5035841;28;20033;-26
2023/12/20 04:02:45;;;;;;;7.63;4.38;;;;;;;14.10;41.78;96342.78;5043108;28;20495;-26
2023/12/20 04:05:11;;;;;;;5.97;3.83;;;;;;;13.93;42.64;96328.69;5043593;28;20530;-26
2023/12/20 04:07:36;;;;;;;6.78;4.30;;;;;;;14.06;42.60;96326.59;5036258;28;20033;-26
2023/12/20 04:10:03;;;;;;;6.78;3.88;;;;;;;14.14;42.74;96330.53;5036234;28;20067;-26
2023/12/20 04:12:29;;;;;;;8.38;3.97;;;;;;;14.13;43.10;96325.53;5041969;28;20031;-26
2023/12/20 04:14:54;;;;;;;9.70;4.10;;;;;;;14.07;43.54;96327.34;5037871;28;20018;-26
2023/12/20 04:17:22;;;;;;;6.68;4.10;;;;;;;14.18;43.85;96322.22;5042518;28;20438;-26
2023/12/20 04:19:48;;;;;;;7.15;5.10;;;;;;;14.08;44.61;96318.72;5035675;28;20026;-26
2023/12/20 04:22:13;;;;;;;6.40;4.68;;;;;;;14.22;44.56;96325.53;5039169;28;20484;-26
2023/12/20 04:24:38;;;;;;;5.75;4.10;;;;;;;14.00;45.19;96320.97;5040256;28;20028;-26
2023/12/20 04:27:04;;;;;;;7.13;4.75;;;;;;;14.07;45.90;96313.72;5042800;28;20021;-26
2023/12/20 04:29:29;;;;;;;8.63;5.57;;;;;;;13.90;47.89;96313.97;5031383;28;20449;-26
2023/12/20 04:31:55;;;;;;;13.23;5.88;;;;;;;13.92;48.36;96314.28;5036087;28;20470;-26
2023/12/20 04:34:22;;;;;;;12.70;7.80;;;;;;;13.90;49.94;96305.03;5035460;28;20450;-26
2023/12/20 04:36:47;;;;;;;15.70;8.52;;;;;;;13.63;51.73;96311.16;5035834;28;20037;-26
2023/12/20 04:39:13;;;;;;;16.52;8.23;;;;;;;13.91;51.49;96307.31;5043101;28;20035;-26
2023/12/20 04:41:39;;;;;;;18.77;10.00;;;;;;;13.89;51.71;96306.25;5046061;28;20024;-26
2023/12/20 04:44:06;;;;;;;20.05;9.80;;;;;;;13.81;51.87;96308.50;5038855;28;20133;-26
2023/12/20 04:46:31;;;;;;;19.25;10.52;;;;;;;13.89;52.18;96312.44;5035719;28;20024;-26
2023/12/20 04:48:56;;;;;;;19.77;9.95;;;;;;;13.93;52.33;96301.41;5035410;28;20094;-26
2023/12/20 04:51:22;;;;;;;18.92;10.18;;;;;;;13.78;52.53;96303.94;5035149;28;20025;-26
2023/12/20 04:53:47;;;;;;;19.02;10.60;;;;;;;13.77;52.46;96302.44;5042748;28;20092;-26
2023/12/20 04:56:13;;;;;;;15.32;9.80;;;;;;;13.93;52.25;96299.44;5041990;28;20025;-26
2023/12/20 04:58:38;;;;;;;17.42;10.13;;;;;;;13.72;52.54;96294.84;5035762;28;20025;-26
2023/12/20 05:01:06;;;;;;;16.23;9.63;;;;;;;13.77;52.75;96305.16;5034883;28;20025;-26
2023/12/20 05:03:31;;;;;;;14.98;8.93;;;;;;;13.79;52.68;96300.00;5035758;28;20017;-26
2023/12/20 05:05:57;;;;;;;13.77;8.13;;;;;;;13.82;52.59;96295.63;5042392;28;20014;-26
2023/12/20 05:08:22;;;;;;;13.65;7.63;;;;;;;13.73;53.19;96299.06;5040449;28;20090;-26
2023/12/20 05:10:48;;;;;;;15.73;8.00;;;;;;;13.68;53.39;96296.94;5036960;28;20061;-26
2023/12/20 05:13:13;;;;;;;13.70;8.23;;;;;;;13.50;54.33;96302.31;5041677;28;20502;-26
2023/12/20 05:15:39;;;;;;;14.13;7.65;;;;;;;13.49;55.15;96304.28;5034330;28;20083;-26
2023/12/20 05:18:05;;;;;;;12.43;7.32;;;;;;;13.60;54.68;96307.34;5035212;28;20020;-26
2023/12/20 05:20:30;;;;;;;12.75;7.50;;;;;;;13.56;55.27;96306.00;5017261;28;20074;-26
2023/12/20 05:22:55;;;;;;;13.65;7.07;;;;;;;13.48;55.34;96300.03;5049924;28;20056;-26
2023/12/20 05:25:21;;;;;;;10.45;5.90;;;;;;;13.55;54.71;96299.78;5041515;28;20020;-26
2023/12/20 05:27:46;;;;;;;9.25;5.68;;;;;;;13.32;55.43;96304.97;5034370;28;20035;-26
2023/12/20 05:30:12;;;;;;;7.95;4.85;;;;;;;13.49;54.62;96295.34;5035237;28;20517;-26
2023/12/20 05:32:37;;;;;;;6.32;4.30;;;;;;;13.43;54.37;96294.44;5033739;28;20398;-26
2023/12/20 05:35:03;;;;;;;7.72;4.47;;;;;;;13.40;54.78;96298.81;5041941;28;20032;-26
2023/12/20 05:37:28;;;;;;;8.35;4.68;;;;;;;13.26;54.44;96302.06;5043667;28;20035;-27
2023/12/20 05:39:54;;;;;;;7.93;4.75;;;;;;;13.46;54.07;96296.28;5039529;28;20458;-26
2023/12/20 05:42:19;;;;;;;8.55;4.60;;;;;;;13.36;54.03;96298.19;5042793;28;20336;-26
2023/12/20 05:44:45;;;;;;;8.10;4.38;;;;;;;13.27;54.30;96296.19;5034939;28;20017;-26
2023/12/20 05:47:10;;;;;;;6.57;4.10;;;;;;;13.41;53.77;96291.41;5034135;28;20482;-26
2023/12/20 05:49:36;;;;;;;7.03;4.40;;;;;;;13.14;54.45;96292.78;5035049;28;20048;-26
2023/12/20 05:52:01;;;;;;;7.03;4.10;;;;;;;13.29;54.44;96291.06;5041044;28;20017;-27
2023/12/20 05:54:27;;;;;;;8.45;5.00;;;;;;;13.29;55.15;96285.59;5035287;28;20069;-26
2023/12/20 05:56:52;;;;;;;8.23;4.43;;;;;;;13.40;55.00;96282.47;5030601;28;20547;-26
2023/12/20 05:59:18;;;;;;;8.52;4.57;;;;;;;13.23;55.49;96281.94;5034727;28;20017;-26
2023/12/20 06:01:43;;;;;;;7.75;4.40;;;;;;;13.18;55.86;96276.31;5040209;28;20523;-27
2023/12/20 06:04:09;;;;;;;9.02;4.80;;;;;;;13.30;55.35;96275.47;5041157;28;20385;-26
2023/12/20 06:06:34;;;;;;;8.00;4.40;;;;;;;13.46;55.04;96271.75;5040625;28;20092;-27
2023/12/20 06:09:00;;;;;;;9.90;5.18;;;;;;;13.21;55.02;96275.44;5047765;28;20082;-27
2023/12/20 06:11:26;;;;;;;10.13;5.20;;;;;;;13.27;54.65;96271.66;5040444;28;20017;-27
2023/12/20 06:13:53;;;;;;;9.38;5.30;;;;;;;13.16;54.36;96274.03;5041033;28;20051;-26
2023/12/20 06:16:19;;;;;;;9.60;4.53;;;;;;;13.27;54.38;96279.06;5041001;28;20021;-26
2023/12/20 06:18:44;;;;;;;9.35;5.13;;;;;;;13.28;54.54;96270.47;5047595;28;20230;-26
2023/12/20 06:21:12;;;;;;;9.93;5.05;;;;;;;13.22;54.97;96274.22;5047931;28;20107;-27
2023/12/20 06:23:38;;;;;;;8.35;4.93;;;;;;;13.35;54.30;96274.13;5048464;28;20043;-26
2023/12/20 06:26:04;;;;;;;14.48;6.47;;;;;;;13.38;54.43;96270.50;5041641;28;20108;-26
2023/12/20 06:28:29;;;;;;;11.40;5.80;;;;;;;13.42;54.79;96262.94;5040314;28;20021;-26
2023/12/20 06:30:54;;;;;;;10.63;5.97;;;;;;;13.32;55.04;96261.41;5047768;28;20021;-26
2023/12/20 06:33:22;;;;;;;10.93;6.88;;;;;;;13.35;54.99;96263.25;5042723;28;20048;-27
2023/12/20 06:35:47;;;;;;;10.55;5.30;;;;;;;13.13;56.12;96261.28;5045745;28;20022;-26
2023/12/20 06:38:13;;;;;;;10.38;5.50;;;;;;;13.34;55.59;96259.75;5028456;28;20410;-26
2023/12/20 06:40:38;;;;;;;9.20;4.72;;;;;;;13.24;55.89;96258.19;5029632;28;20032;-26
2023/12/20 06:43:03;;;;;;;8.68;5.07;;;;;;;13.15;55.72;96255.41;5040773;28;20029;-26
2023/12/20 06:45:29;;;;;;;9.85;5.53;;;;;;;13.14;56.01;96260.09;5041374;28;20434;-27
2023/12/20 06:47:54;;;;;;;8.02;4.57;;;;;;;13.31;55.70;96260.66;5047411;28;20440;-26
2023/12/20 06:50:20;;;;;;;7.32;4.00;;;;;;;13.16;55.90;96252.25;5040723;28;20041;-26
2023/12/20 06:52:46;;;;;;;5.93;3.40;;;;;;;13.29;55.59;96258.38;5040823;28;20029;-26
2023/12/20 06:55:11;;;;;;;7.85;4.40;;;;;;;13.18;56.08;96263.47;5040248;28;20024;-27
2023/12/20 06:57:39;;;;;;;6.13;3.95;;;;;;;13.19;55.54;96254.09;5041199;28;20484;-27
2023/12/20 07:00:05;;;;;;;7.13;4.20;;;;;;;13.37;55.14;96249.91;5044510;28;20017;-26
2023/12/20 07:02:31;;;;;;;7.28;4.20;;;;;;;13.27;55.09;96257.28;5043682;28;20018;-26
2023/12/20 07:04:57;;;;;;;6.97;3.80;;;;;;;13.35;54.88;96252.34;5048075;28;20026;-26
2023/12/20 07:07:24;;;;;;;5.55;3.17;;;;;;;13.32;54.82;96247.78;5040481;28;20032;-26
2023/12/20 07:09:49;;;;;;;5.93;3.35;;;;;;;13.07;55.28;96248.72;5040747;28;20517;-26
2023/12/20 07:12:15;;;;;;;6.15;3.05;;;;;;;13.11;55.17;96252.78;5037869;28;20026;-27
2023/12/20 07:14:40;;;;;;;4.63;2.92;;;;;;;13.27;54.65;96249.13;5029735;28;20025;-26
2023/12/20 07:17:11;;;;;;;6.07;3.70;;;;;;;13.19;54.84;96251.38;5044559;28;20016;-26
2023/12/20 07:19:37;;;;;;;6.32;3.85;;;;;;;13.08;55.32;96259.16;5036612;28;20071;-27
2023/12/20 07:22:04;;;;;;;9.43;5.50;;;;;;;13.17;55.85;96251.06;5039208;28;20060;-26
2023/12/20 07:24:29;;;;;;;9.77;6.40;;;;;;;13.08;56.12;96253.72;5043113;28;20040;-26
2023/12/20 07:26:54;;;;;;;7.47;4.72;;;;;;;13.21;56.26;96248.97;5044047;28;20466;-26
2023/12/20 07:29:20;;;;;;;8.07;5.00;;;;;;;13.14;56.51;96254.66;5046230;28;20021;-26
2023/12/20 07:31:45;;;;;;;22.30;20.40;;;;;;;13.35;55.98;96252.34;5042052;28;20021;-26
2023/12/20 07:34:11;;;;;;;16.23;11.38;;;;;;;13.23;56.73;96251.22;5036899;28;20383;-26
2023/12/20 07:36:36;;;;;;;10.27;8.80;;;;;;;13.03;57.27;96265.16;5037125;28;20033;-26
2023/12/20 07:39:03;;;;;;;10.57;6.22;;;;;;;13.04;57.54;96260.47;5025810;28;20032;-27
2023/12/20 07:41:28;;;;;;;9.85;5.85;;;;;;;13.36;57.04;96245.66;5045014;28;20024;-27
2023/12/20 07:43:54;;;;;;;10.70;6.03;;;;;;;13.38;56.89;96241.28;5043622;28;20395;-26
2023/12/20 07:46:22;;;;;;;12.10;6.50;;;;;;;13.28;58.03;96245.94;5036246;28;20022;-26
2023/12/20 07:48:48;;;;;;;12.48;6.15;;;;;;;13.39;57.96;96242.06;5036458;28;20514;-26
2023/12/20 07:51:13;;;;;;;12.52;6.07;;;;;;;13.36;58.14;96237.50;5036917;28;20041;-26
2023/12/20 07:53:39;;;;;;;14.45;7.38;;;;;;;13.49;58.17;96230.72;5037017;28;20032;-26
2023/12/20 07:56:14;;;;;;;12.57;6.78;;;;;;;13.47;58.43;96235.13;5041425;28;20017;-26
2023/12/20 07:58:40;;;;;;;14.77;7.68;;;;;;;13.44;58.65;96227.84;5037997;28;20059;-26
2023/12/20 08:01:05;;;;;;;16.30;7.95;;;;;;;13.55;58.70;96233.63;5036461;28;20096;-27
2023/12/20 08:03:30;;;;;;;22.05;11.07;;;;;;;13.57;58.60;96231.97;5036551;28;20022;-26
2023/12/20 08:05:59;;;;;;;30.85;17.35;;;;;;;13.55;58.63;96233.63;5026165;28;20072;-26
2023/12/20 08:08:25;;;;;;;26.77;13.77;;;;;;;13.66;58.76;96236.69;5036583;28;20021;-26
2023/12/20 08:10:50;;;;;;;22.52;12.32;;;;;;;13.62;58.47;96231.38;5043449;28;20497;-26
2023/12/20 08:13:16;;;;;;;21.20;11.43;;;;;;;13.62;58.49;96233.34;5036242;28;20348;-26
2023/12/20 08:15:42;;;;;;;19.23;11.05;;;;;;;13.54;59.01;96232.13;5035580;28;20022;-26
2023/12/20 08:18:07;;;;;;;20.30;11.27;;;;;;;13.55;58.74;96234.41;5036973;28;20509;-26
2023/12/20 08:20:33;;;;;;;20.38;11.10;;;;;;;13.59;58.88;96237.75;5036014;28;20024;-26
2023/12/20 08:22:58;;;;;;;17.13;9.50;;;;;;;13.69;58.51;96233.06;5036109;28;20029;-26
2023/12/20 08:25:23;;;;;;;18.33;9.13;;;;;;;13.66;58.51;96223.06;5035285;28;20021;-26
2023/12/20 08:27:49;;;;;;;15.50;8.98;;;;;;;13.76;57.81;96227.31;5035452;28;20025;-26
2023/12/20 08:30:16;;;;;;;17.35;8.45;;;;;;;13.70;58.34;96223.69;5036736;28;20040;-26
2023/12/20 08:32:42;;;;;;;18.65;8.55;;;;;;;13.71;58.18;96227.94;5035494;28;20383;-26
2023/12/20 08:35:08;;;;;;;14.85;7.63;;;;;;;13.72;57.66;96234.91;5024641;28;20056;-26
2023/12/20 08:37:34;;;;;;;16.48;7.72;;;;;;;13.71;57.86;96236.09;5035240;28;20032;-26
2023/12/20 08:39:59;;;;;;;14.77;7.72;;;;;;;13.81;57.65;96243.09;5042787;28;20026;-26
2023/12/20 08:42:30;;;;;;;17.23;8.38;;;;;;;13.80;57.55;96247.03;5043151;28;20029;-26
2023/12/20 08:44:56;;;;;;;17.55;8.38;;;;;;;13.84;57.65;96250.38;5035231;28;20029;-26
2023/12/20 08:47:21;;;;;;;16.25;8.52;;;;;;;13.61;58.50;96248.16;5043706;28;20029;-26
2023/12/20 08:49:47;;;;;;;20.50;10.02;;;;;;;13.74;58.18;96243.34;5042129;28;20053;-26
2023/12/20 08:52:12;;;;;;;17.10;8.05;;;;;;;13.96;57.49;96246.75;5041589;28;20016;-26
2023/12/20 08:54:38;;;;;;;14.10;7.78;;;;;;;13.99;57.26;96245.06;5036665;28;20382;-26
2023/12/20 08:57:05;;;;;;;16.27;8.48;;;;;;;14.14;56.87;96237.06;5035255;28;20032;-26
2023/12/20 08:59:31;;;;;;;17.27;8.48;;;;;;;14.60;55.53;96246.75;5035855;28;20017;-26
2023/12/20 09:01:56;;;;;;;17.98;8.43;;;;;;;14.54;55.71;96245.88;5037837;28;20036;-26
2023/12/20 09:04:22;;;;;;;15.90;8.35;;;;;;;14.79;55.13;96235.81;5045746;28;20020;-26
2023/12/20 09:06:47;;;;;;;16.67;8.70;;;;;;;15.11;54.80;96237.84;5043915;28;20029;-26
2023/12/20 09:09:15;;;;;;;15.27;8.20;;;;;;;14.72;55.44;96234.91;5031430;28;20475;-26
2023/12/20 09:11:42;;;;;;;15.27;8.57;;;;;;;15.56;52.82;96220.53;5035432;28;20079;-26
2023/12/20 09:14:07;;;;;;;14.60;7.50;;;;;;;16.34;50.38;96224.09;5017116;28;20017;-26
2023/12/20 09:16:33;;;;;;;15.88;9.02;;;;;;;14.88;54.64;96219.41;5034923;28;20022;-26
2023/12/20 09:18:58;;;;;;;17.00;8.65;;;;;;;14.44;56.26;96217.09;5042042;28;20025;-26
2023/12/20 09:21:24;;;;;;;15.48;8.73;;;;;;;14.41;56.54;96219.97;5038677;28;20051;-26
2023/12/20 09:23:49;;;;;;;17.38;9.38;;;;;;;14.19;57.29;96209.19;5045359;28;20061;-26
2023/12/20 09:26:14;;;;;;;16.40;9.48;;;;;;;14.41;57.13;96214.50;5035643;28;20021;-26
2023/12/20 09:28:40;;;;;;;20.23;11.30;;;;;;;14.16;57.95;96210.09;5034247;28;20387;-26
2023/12/20 09:31:06;;;;;;;20.10;10.18;;;;;;;14.29;57.67;96213.41;5035337;28;20048;-26
2023/12/20 09:33:32;;;;;;;19.55;10.50;;;;;;;14.10;58.10;96211.88;5040939;28;20387;-26
2023/12/20 09:35:58;;;;;;;17.90;10.23;;;;;;;14.27;57.45;96215.84;5040458;28;20025;-26
2023/12/20 09:38:23;;;;;;;20.90;11.77;;;;;;;14.19;58.30;96220.09;5035329;28;20025;-26
2023/12/20 09:40:49;;;;;;;18.23;10.73;;;;;;;14.11;58.62;96208.72;5039340;28;20025;-26
2023/12/20 09:43:15;;;;;;;19.67;11.95;;;;;;;14.14;58.58;96213.25;5036857;28;20073;-26
2023/12/20 09:45:45;;;;;;;21.35;11.52;;;;;;;14.21;58.54;96206.75;5037957;28;20147;-26
2023/12/20 09:48:10;;;;;;;20.88;12.65;;;;;;;14.18;58.49;96207.66;5044022;28;20021;-26
2023/12/20 09:50:36;;;;;;;21.05;12.70;;;;;;;14.40;58.43;96213.75;5036270;28;20040;-26
2023/12/20 09:53:04;;;;;;;22.27;12.75;;;;;;;14.34;58.29;96210.09;5039794;28;20544;-26
2023/12/20 09:55:32;;;;;;;22.15;12.57;;;;;;;14.17;58.86;96206.16;5035445;28;20022;-26
2023/12/20 09:57:57;;;;;;;19.83;12.00;;;;;;;14.26;59.41;96200.69;5034357;28;20466;-27
2023/12/20 10:00:23;;;;;;;20.85;12.68;;;;;;;14.32;59.29;96196.16;5034555;28;20022;-26
2023/12/20 10:02:59;;;;;;;22.25;12.23;;;;;;;14.38;58.73;96197.03;5024272;28;20028;-26
2023/12/20 10:05:29;;;;;;;20.23;12.30;;;;;;;14.35;59.12;96182.34;5033968;28;20466;-26
2023/12/20 10:07:55;;;;;;;19.27;11.27;;;;;;;14.31;59.56;96181.75;5035335;28;20025;-26
2023/12/20 10:10:20;;;;;;;17.35;10.93;;;;;;;14.43;59.12;96174.63;5033753;28;20021;-26
2023/12/20 10:13:11;;;;;;;19.02;10.93;;;;;;;14.36;59.02;96164.00;5035052;28;20026;-26
2023/12/20 10:15:37;;;;;;;11.93;8.05;;;;;;;14.01;59.41;96172.50;5040999;28;20022;-26
2023/12/20 10:18:04;;;;;;;14.45;8.73;;;;;;;14.45;58.30;96168.72;5041838;28;20033;-26
2023/12/20 10:20:30;;;;;;;13.02;8.35;;;;;;;14.42;58.41;96164.19;5034057;28;20021;-26
2023/12/20 10:22:57;;;;;;;12.70;8.05;;;;;;;14.43;58.08;96163.72;5042213;28;20029;-26
2023/12/20 10:25:24;;;;;;;14.23;8.82;;;;;;;14.41;58.30;96149.03;5033831;28;20021;-26
2023/12/20 10:27:50;;;;;;;20.67;11.57;;;;;;;14.36;58.57;96155.81;5040215;28;20052;-26
2023/12/20 10:30:16;;;;;;;13.75;9.00;;;;;;;14.35;58.66;96155.06;5036014;28;20470;-26
2023/12/20 10:32:41;;;;;;;14.38;9.30;;;;;;;14.44;58.46;96153.56;5039848;28;20085;-26
2023/12/20 10:35:08;;;;;;;16.85;8.85;;;;;;;14.32;59.00;96157.97;5034798;28;20071;-26
2023/12/20 10:37:39;;;;;;;14.40;8.00;;;;;;;14.38;58.18;96150.66;5033535;28;20072;-26
2023/12/20 10:40:06;;;;;;;14.05;8.93;;;;;;;14.33;58.67;96146.59;5033490;28;20048;-26
2023/12/20 10:42:33;;;;;;;13.30;8.65;;;;;;;14.50;57.95;96138.84;5033685;28;20489;-26
2023/12/20 10:45:00;;;;;;;13.23;8.13;;;;;;;14.48;58.07;96132.31;5040751;28;20047;-26
2023/12/20 10:47:26;;;;;;;12.13;8.15;;;;;;;14.49;57.68;96125.66;5043954;28;20022;-26
2023/12/20 10:49:52;;;;;;;10.65;7.95;;;;;;;14.53;57.17;96124.28;5037111;28;20072;-26
2023/12/20 10:52:18;;;;;;;12.50;7.80;;;;;;;14.63;57.32;96117.56;5036951;28;20486;-26
2023/12/20 10:54:44;;;;;;;9.90;7.18;;;;;;;14.48;57.77;96111.25;5045305;28;20024;-27
2023/12/20 10:57:11;;;;;;;10.57;7.85;;;;;;;14.38;58.15;96115.94;5042837;28;20664;-26
2023/12/20 10:59:38;;;;;;;13.43;8.98;;;;;;;14.41;58.02;96119.78;5039910;28;20025;-26
2023/12/20 11:02:07;;;;;;;12.25;8.13;;;;;;;14.23;58.98;96108.84;5037528;28;20425;-26
2023/12/20 11:05:05;;;;;;;11.25;8.35;;;;;;;14.48;57.95;96105.78;5045249;28;20040;-24
2023/12/20 11:07:46;;;;;;;11.75;8.18;;;;;;;14.60;57.61;96112.28;5044137;28;20100;-24
2023/12/20 11:10:20;;;;;;;11.70;8.38;;;;;;;14.45;58.09;96111.44;5040461;28;20493;-24
2023/12/20 11:12:57;;;;;;;12.50;8.48;;;;;;;14.54;57.69;96103.22;5040267;28;20381;-24
2023/12/20 11:15:24;;;;;;;11.80;8.88;;;;;;;14.56;57.54;96107.00;5036757;28;20466;-24
2023/12/20 11:17:57;;;;;;;15.20;8.90;;;;;;;14.38;57.62;96107.00;5038044;28;20025;-24
2023/12/20 11:20:38;;;;;;;13.70;10.05;;;;;;;14.58;57.30;96103.81;5036750;28;20104;-24